sensor_id;sensor_type;location;lat;lon;timestamp;pressure;altitude;pressure_sealevel;temperature;humidity
38812;BME280;24553;51.640;-0.752;2022-10-31T00:01:38;101053.25;;;9.95;100.00
38812;BME280;24553;51.640;-0.752;2022-10-31T00:04:04;101042.00;;;9.93;100.00
38812;BME280;24553;51.640;-0.752;2022-10-31T00:06:30;101043.53;;;9.87;100.00
38812;BME280;24553;51.640;-0.752;2022-10-31T00:09:02;101046.31;;;9.86;100.00
38812;BME280;24553;51.640;-0.752;2022-10-31T00:11:27;101052.63;;;9.85;100.00
38812;BME280;24553;51.640;-0.752;2022-10-31T00:13:53;101052.16;;;9.81;100.00
38812;BME280;24553;51.640;-0.752;2022-10-31T00:16:21;101051.00;;;9.75;100.00
38812;BME280;24553;51.640;-0.752;2022-10-31T00:18:51;101050.06;;;9.68;100.00
38812;BME280;24553;51.640;-0.752;2022-10-31T00:21:17;101049.75;;;9.63;100.00
38812;BME280;24553;51.640;-0.752;2022-10-31T00:23:42;101041.31;;;9.59;100.00
38812;BME280;24553;51.640;-0.752;2022-10-31T00:26:08;101045.63;;;9.60;100.00
38812;BME280;24553;51.640;-0.752;2022-10-31T00:28:34;101038.31;;;9.63;100.00
38812;BME280;24553;51.640;-0.752;2022-10-31T00:31:04;101039.78;;;9.65;100.00
38812;BME280;24553;51.640;-0.752;2022-10-31T00:33:30;101041.16;;;9.61;100.00
38812;BME280;24553;51.640;-0.752;2022-10-31T00:35:56;101047.59;;;9.58;100.00
38812;BME280;24553;51.640;-0.752;2022-10-31T00:38:22;101048.94;;;9.54;100.00
38812;BME280;24553;51.640;-0.752;2022-10-31T00:40:48;101043.81;;;9.45;100.00
38812;BME280;24553;51.640;-0.752;2022-10-31T00:43:13;101047.31;;;9.37;100.00
38812;BME280;24553;51.640;-0.752;2022-10-31T00:45:40;101041.19;;;9.36;100.00
38812;BME280;24553;51.640;-0.752;2022-10-31T00:48:05;101038.06;;;9.33;100.00
38812;BME280;24553;51.640;-0.752;2022-10-31T00:50:31;101040.84;;;9.39;100.00
38812;BME280;24553;51.640;-0.752;2022-10-31T00:52:56;101048.78;;;9.39;100.00
38812;BME280;24553;51.640;-0.752;2022-10-31T00:55:23;101038.41;;;9.38;100.00
38812;BME280;24553;51.640;-0.752;2022-10-31T00:57:48;101041.88;;;9.38;100.00
38812;BME280;24553;51.640;-0.752;2022-10-31T01:00:14;101041.88;;;9.30;100.00
38812;BME280;24553;51.640;-0.752;2022-10-31T01:02:40;101043.88;;;9.28;100.00
38812;BME280;24553;51.640;-0.752;2022-10-31T01:05:05;101041.22;;;9.28;100.00
38812;BME280;24553;51.640;-0.752;2022-10-31T01:07:31;101038.91;;;9.25;100.00
38812;BME280;24553;51.640;-0.752;2022-10-31T01:09:56;101040.75;;;9.25;100.00
38812;BME280;24553;51.640;-0.752;2022-10-31T01:12:22;101046.84;;;9.25;100.00
38812;BME280;24553;51.640;-0.752;2022-10-31T01:14:47;101041.06;;;9.30;100.00
38812;BME280;24553;51.640;-0.752;2022-10-31T01:17:13;101041.56;;;9.25;100.00
38812;BME280;24553;51.640;-0.752;2022-10-31T01:19:38;101038.91;;;9.25;100.00
38812;BME280;24553;51.640;-0.752;2022-10-31T01:22:04;101042.72;;;9.23;100.00
38812;BME280;24553;51.640;-0.752;2022-10-31T01:24:29;101041.91;;;9.22;100.00
38812;BME280;24553;51.640;-0.752;2022-10-31T01:26:55;101045.53;;;9.21;100.00
38812;BME280;24553;51.640;-0.752;2022-10-31T01:29:20;101037.13;;;9.17;100.00
38812;BME280;24553;51.640;-0.752;2022-10-31T01:31:46;101039.41;;;9.21;100.00
38812;BME280;24553;51.640;-0.752;2022-10-31T01:34:13;101041.22;;;9.28;100.00
38812;BME280;24553;51.640;-0.752;2022-10-31T01:36:39;101044.56;;;9.22;100.00
38812;BME280;24553;51.640;-0.752;2022-10-31T01:39:10;101041.91;;;9.22;100.00
38812;BME280;24553;51.640;-0.752;2022-10-31T01:41:39;101042.72;;;9.23;100.00
38812;BME280;24553;51.640;-0.752;2022-10-31T01:49:48;101046.47;;;9.45;100.00
38812;BME280;24553;51.640;-0.752;2022-10-31T01:55:18;101045.16;;;9.49;100.00
38812;BME280;24553;51.640;-0.752;2022-10-31T01:57:49;101058.72;;;9.46;100.00
38812;BME280;24553;51.640;-0.752;2022-10-31T02:00:19;101048.94;;;9.54;100.00
38812;BME280;24553;51.640;-0.752;2022-10-31T02:02:45;101032.50;;;9.67;100.00
38812;BME280;24553;51.640;-0.752;2022-10-31T02:05:17;101049.84;;;9.78;100.00
38812;BME280;24553;51.640;-0.752;2022-10-31T02:07:51;101050.09;;;9.91;100.00
38812;BME280;24553;51.640;-0.752;2022-10-31T02:10:20;101055.38;;;9.99;100.00
38812;BME280;24553;51.640;-0.752;2022-10-31T02:12:47;101050.22;;;10.06;100.00
38812;BME280;24553;51.640;-0.752;2022-10-31T02:15:12;101038.38;;;10.17;100.00
38812;BME280;24553;51.640;-0.752;2022-10-31T02:17:38;101039.69;;;10.21;100.00
38812;BME280;24553;51.640;-0.752;2022-10-31T02:20:15;101040.88;;;10.18;100.00
38812;BME280;24553;51.640;-0.752;2022-10-31T02:23:14;101037.25;;;10.11;100.00
38812;BME280;24553;51.640;-0.752;2022-10-31T02:32:03;101033.59;;;9.89;100.00
38812;BME280;24553;51.640;-0.752;2022-10-31T02:34:46;101027.78;;;9.86;100.00
38812;BME280;24553;51.640;-0.752;2022-10-31T02:37:40;101023.50;;;9.85;100.00
38812;BME280;24553;51.640;-0.752;2022-10-31T02:45:30;101019.22;;;9.83;100.00
38812;BME280;24553;51.640;-0.752;2022-10-31T02:48:00;101014.44;;;9.79;100.00
38812;BME280;24553;51.640;-0.752;2022-10-31T02:50:34;101012.03;;;9.92;100.00
38812;BME280;24553;51.640;-0.752;2022-10-31T02:53:02;101014.50;;;9.94;100.00
38812;BME280;24553;51.640;-0.752;2022-10-31T02:57:58;101016.38;;;9.85;100.00
38812;BME280;24553;51.640;-0.752;2022-10-31T03:00:26;101018.06;;;9.78;100.00
38812;BME280;24553;51.640;-0.752;2022-10-31T03:03:06;101024.72;;;9.74;100.00
38812;BME280;24553;51.640;-0.752;2022-10-31T03:10:56;101030.63;;;9.84;100.00
38812;BME280;24553;51.640;-0.752;2022-10-31T03:16:23;101031.88;;;9.96;100.00
38812;BME280;24553;51.640;-0.752;2022-10-31T03:18:55;101029.22;;;9.96;100.00
38812;BME280;24553;51.640;-0.752;2022-10-31T03:21:29;101020.66;;;9.94;100.00
38812;BME280;24553;51.640;-0.752;2022-10-31T03:23:57;101023.34;;;9.86;100.00
38812;BME280;24553;51.640;-0.752;2022-10-31T03:26:24;101021.19;;;9.81;100.00
38812;BME280;24553;51.640;-0.752;2022-10-31T03:28:56;101020.03;;;9.84;100.00
38812;BME280;24553;51.640;-0.752;2022-10-31T03:31:47;101025.84;;;9.79;100.00
38812;BME280;24553;51.640;-0.752;2022-10-31T03:34:12;101020.22;;;9.74;100.00
38812;BME280;24553;51.640;-0.752;2022-10-31T03:36:39;101019.63;;;9.64;100.00
38812;BME280;24553;51.640;-0.752;2022-10-31T03:39:06;101021.47;;;9.55;100.00
38812;BME280;24553;51.640;-0.752;2022-10-31T03:41:38;101020.63;;;9.55;100.00
38812;BME280;24553;51.640;-0.752;2022-10-31T03:44:10;101012.38;;;9.50;100.00
38812;BME280;24553;51.640;-0.752;2022-10-31T03:46:36;101014.91;;;9.43;100.00
38812;BME280;24553;51.640;-0.752;2022-10-31T03:49:02;101013.84;;;9.52;100.00
38812;BME280;24553;51.640;-0.752;2022-10-31T03:59:24;101017.66;;;9.58;100.00
38812;BME280;24553;51.640;-0.752;2022-10-31T04:01:53;101013.00;;;9.60;100.00
38812;BME280;24553;51.640;-0.752;2022-10-31T04:04:21;101013.16;;;9.67;100.00
38812;BME280;24553;51.640;-0.752;2022-10-31T04:06:48;101010.78;;;9.80;100.00
38812;BME280;24553;51.640;-0.752;2022-10-31T04:09:16;101005.66;;;9.78;100.00
38812;BME280;24553;51.640;-0.752;2022-10-31T04:11:50;101008.00;;;9.73;100.00
38812;BME280;24553;51.640;-0.752;2022-10-31T04:14:17;100998.91;;;9.68;100.00
38812;BME280;24553;51.640;-0.752;2022-10-31T04:16:43;101000.91;;;9.66;100.00
38812;BME280;24553;51.640;-0.752;2022-10-31T04:19:10;101000.06;;;9.65;100.00
38812;BME280;24553;51.640;-0.752;2022-10-31T04:21:35;100998.91;;;9.68;100.00
38812;BME280;24553;51.640;-0.752;2022-10-31T04:24:01;100998.09;;;9.67;100.00
38812;BME280;24553;51.640;-0.752;2022-10-31T04:26:26;100988.50;;;9.66;100.00
38812;BME280;24553;51.640;-0.752;2022-10-31T04:28:51;100996.47;;;9.58;100.00
38812;BME280;24553;51.640;-0.752;2022-10-31T04:31:17;100995.47;;;9.59;100.00
38812;BME280;24553;51.640;-0.752;2022-10-31T04:33:42;100994.47;;;9.60;100.00
38812;BME280;24553;51.640;-0.752;2022-10-31T04:36:08;100990.03;;;9.60;100.00
38812;BME280;24553;51.640;-0.752;2022-10-31T04:38:33;100982.06;;;9.60;100.00
38812;BME280;24553;51.640;-0.752;2022-10-31T04:40:59;100992.66;;;9.60;100.00
38812;BME280;24553;51.640;-0.752;2022-10-31T04:43:25;100986.84;;;9.65;100.00
38812;BME280;24553;51.640;-0.752;2022-10-31T04:45:50;100985.16;;;9.72;100.00
38812;BME280;24553;51.640;-0.752;2022-10-31T04:48:16;100973.03;;;9.78;100.00
38812;BME280;24553;51.640;-0.752;2022-10-31T04:50:41;100985.91;;;9.89;100.00
38812;BME280;24553;51.640;-0.752;2022-10-31T04:53:07;100983.06;;;9.91;100.00
38812;BME280;24553;51.640;-0.752;2022-10-31T04:55:32;100980.06;;;9.94;100.00
38812;BME280;24553;51.640;-0.752;2022-10-31T04:57:58;100981.72;;;9.95;100.00
38812;BME280;24553;51.640;-0.752;2022-10-31T05:00:24;100984.84;;;9.98;100.00
38812;BME280;24553;51.640;-0.752;2022-10-31T05:02:55;100983.00;;;9.99;100.00
38812;BME280;24553;51.640;-0.752;2022-10-31T05:05:27;100981.38;;;9.98;100.00
38812;BME280;24553;51.640;-0.752;2022-10-31T05:07:53;100976.59;;;9.93;100.00
38812;BME280;24553;51.640;-0.752;2022-10-31T05:10:21;100979.25;;;9.93;100.00
38812;BME280;24553;51.640;-0.752;2022-10-31T05:12:49;100989.69;;;9.95;100.00
38812;BME280;24553;51.640;-0.752;2022-10-31T05:15:16;100987.63;;;10.05;100.00
38812;BME280;24553;51.640;-0.752;2022-10-31T05:17:42;100984.63;;;10.08;100.00
38812;BME280;24553;51.640;-0.752;2022-10-31T05:20:09;100990.59;;;10.10;100.00
38812;BME280;24553;51.640;-0.752;2022-10-31T05:22:34;100987.56;;;10.13;100.00
38812;BME280;24553;51.640;-0.752;2022-10-31T05:24:59;100988.88;;;10.17;100.00
38812;BME280;24553;51.640;-0.752;2022-10-31T05:27:25;100980.94;;;10.17;100.00
38812;BME280;24553;51.640;-0.752;2022-10-31T05:29:51;100978.97;;;10.11;100.00
38812;BME280;24553;51.640;-0.752;2022-10-31T05:32:16;100967.25;;;10.05;100.00
38812;BME280;24553;51.640;-0.752;2022-10-31T05:34:42;100969.44;;;10.02;100.00
38812;BME280;24553;51.640;-0.752;2022-10-31T05:37:07;100970.25;;;10.02;100.00
38812;BME280;24553;51.640;-0.752;2022-10-31T05:39:32;100968.94;;;9.98;100.00
38812;BME280;24553;51.640;-0.752;2022-10-31T05:41:58;100963.28;;;10.01;100.00
38812;BME280;24553;51.640;-0.752;2022-10-31T05:44:23;100966.97;;;10.00;100.00
38812;BME280;24553;51.640;-0.752;2022-10-31T05:46:48;100967.78;;;10.01;100.00
38812;BME280;24553;51.640;-0.752;2022-10-31T05:49:14;100965.78;;;10.03;100.00
38812;BME280;24553;51.640;-0.752;2022-10-31T05:51:39;100976.03;;;10.06;100.00
38812;BME280;24553;51.640;-0.752;2022-10-31T05:54:05;100964.91;;;10.11;100.00
38812;BME280;24553;51.640;-0.752;2022-10-31T05:56:30;100970.03;;;10.12;100.00
38812;BME280;24553;51.640;-0.752;2022-10-31T05:58:55;100961.22;;;10.20;100.00
38812;BME280;24553;51.640;-0.752;2022-10-31T06:01:21;100967.31;;;10.20;100.00
38812;BME280;24553;51.640;-0.752;2022-10-31T06:03:46;100971.81;;;10.20;100.00
38812;BME280;24553;51.640;-0.752;2022-10-31T06:06:11;100961.31;;;10.26;100.00
38812;BME280;24553;51.640;-0.752;2022-10-31T06:08:37;100967.94;;;10.31;100.00
38812;BME280;24553;51.640;-0.752;2022-10-31T06:11:02;100960.66;;;10.33;100.00
38812;BME280;24553;51.640;-0.752;2022-10-31T06:13:28;100965.59;;;10.36;100.00
38812;BME280;24553;51.640;-0.752;2022-10-31T06:15:53;100960.44;;;10.34;100.00
38812;BME280;24553;51.640;-0.752;2022-10-31T06:18:18;100962.28;;;10.34;100.00
38812;BME280;24553;51.640;-0.752;2022-10-31T06:20:44;100954.97;;;10.36;100.00
38812;BME280;24553;51.640;-0.752;2022-10-31T06:23:09;100956.81;;;10.35;100.00
38812;BME280;24553;51.640;-0.752;2022-10-31T06:25:35;100957.44;;;10.37;100.00
38812;BME280;24553;51.640;-0.752;2022-10-31T06:28:00;100953.00;;;10.38;100.00
38812;BME280;24553;51.640;-0.752;2022-10-31T06:30:26;100954.25;;;10.42;100.00
38812;BME280;24553;51.640;-0.752;2022-10-31T06:32:51;100950.63;;;10.43;100.00
38812;BME280;24553;51.640;-0.752;2022-10-31T06:35:17;100947.31;;;10.41;100.00
38812;BME280;24553;51.640;-0.752;2022-10-31T06:37:43;100945.84;;;10.38;100.00
38812;BME280;24553;51.640;-0.752;2022-10-31T06:40:15;100948.03;;;10.35;100.00
38812;BME280;24553;51.640;-0.752;2022-10-31T06:42:40;100952.50;;;10.34;100.00
38812;BME280;24553;51.640;-0.752;2022-10-31T06:45:06;100939.91;;;10.36;100.00
38812;BME280;24553;51.640;-0.752;2022-10-31T06:47:31;100949.69;;;10.36;100.00
38812;BME280;24553;51.640;-0.752;2022-10-31T06:49:57;100938.72;;;10.39;100.00
38812;BME280;24553;51.640;-0.752;2022-10-31T06:52:22;100940.72;;;10.37;100.00
38812;BME280;24553;51.640;-0.752;2022-10-31T06:54:48;100946.84;;;10.37;100.00
38812;BME280;24553;51.640;-0.752;2022-10-31T06:57:13;100947.69;;;10.38;100.00
38812;BME280;24553;51.640;-0.752;2022-10-31T06:59:39;100946.50;;;10.40;100.00
38812;BME280;24553;51.640;-0.752;2022-10-31T07:02:04;100940.72;;;10.37;100.00
38812;BME280;24553;51.640;-0.752;2022-10-31T07:04:30;100936.44;;;10.36;100.00
38812;BME280;24553;51.640;-0.752;2022-10-31T07:06:55;100944.38;;;10.36;100.00
38812;BME280;24553;51.640;-0.752;2022-10-31T07:09:20;100932.78;;;10.37;100.00
38812;BME280;24553;51.640;-0.752;2022-10-31T07:11:46;100930.66;;;10.32;100.00
38812;BME280;24553;51.640;-0.752;2022-10-31T07:14:11;100927.19;;;10.32;100.00
38812;BME280;24553;51.640;-0.752;2022-10-31T07:16:37;100928.47;;;10.36;100.00
38812;BME280;24553;51.640;-0.752;2022-10-31T07:19:02;100936.22;;;10.37;100.00
38812;BME280;24553;51.640;-0.752;2022-10-31T07:21:27;100941.91;;;10.34;100.00
38812;BME280;24553;51.640;-0.752;2022-10-31T07:23:53;100936.78;;;10.33;100.00
38812;BME280;24553;51.640;-0.752;2022-10-31T07:26:18;100941.91;;;10.34;100.00
38812;BME280;24553;51.640;-0.752;2022-10-31T07:28:45;100939.59;;;10.31;100.00
38812;BME280;24553;51.640;-0.752;2022-10-31T07:31:12;100930.31;;;10.27;100.00
38812;BME280;24553;51.640;-0.752;2022-10-31T07:33:37;100946.09;;;10.29;100.00
38812;BME280;24553;51.640;-0.752;2022-10-31T07:36:02;100950.38;;;10.30;100.00
38812;BME280;24553;51.640;-0.752;2022-10-31T07:38:28;100942.38;;;10.38;100.00
38812;BME280;24553;51.640;-0.752;2022-10-31T07:40:53;100942.84;;;10.41;100.00
38812;BME280;24553;51.640;-0.752;2022-10-31T07:43:19;100950.56;;;10.51;100.00
38812;BME280;24553;51.640;-0.752;2022-10-31T07:45:49;100951.75;;;10.63;100.00
38812;BME280;24553;51.640;-0.752;2022-10-31T07:48:14;100934.31;;;10.69;100.00
38812;BME280;24553;51.640;-0.752;2022-10-31T07:50:39;100946.69;;;10.77;100.00
38812;BME280;24553;51.640;-0.752;2022-10-31T07:53:07;100943.28;;;10.83;100.00
38812;BME280;24553;51.640;-0.752;2022-10-31T07:55:33;100951.25;;;10.83;100.00
38812;BME280;24553;51.640;-0.752;2022-10-31T07:58:11;100937.44;;;10.87;100.00
38812;BME280;24553;51.640;-0.752;2022-10-31T08:00:38;100950.16;;;10.92;100.00
38812;BME280;24553;51.640;-0.752;2022-10-31T08:03:06;100938.53;;;10.93;100.00
38812;BME280;24553;51.640;-0.752;2022-10-31T08:05:33;100945.31;;;10.96;100.00
38812;BME280;24553;51.640;-0.752;2022-10-31T08:07:58;100935.16;;;10.99;100.00
38812;BME280;24553;51.640;-0.752;2022-10-31T08:10:25;100928.31;;;11.05;100.00
38812;BME280;24553;51.640;-0.752;2022-10-31T08:13:02;100935.69;;;11.09;100.00
38812;BME280;24553;51.640;-0.752;2022-10-31T08:15:28;100940.63;;;11.12;100.00
38812;BME280;24553;51.640;-0.752;2022-10-31T08:17:53;100942.84;;;11.24;100.00
38812;BME280;24553;51.640;-0.752;2022-10-31T08:20:19;100946.75;;;11.28;100.00
38812;BME280;24553;51.640;-0.752;2022-10-31T08:22:58;100949.16;;;11.38;100.00
38812;BME280;24553;51.640;-0.752;2022-10-31T08:25:25;100948.31;;;11.37;100.00
38812;BME280;24553;51.640;-0.752;2022-10-31T08:27:52;100950.22;;;11.43;100.00
38812;BME280;24553;51.640;-0.752;2022-10-31T08:30:19;100940.63;;;11.42;100.00
38812;BME280;24553;51.640;-0.752;2022-10-31T08:32:44;100939.59;;;11.43;100.00
38812;BME280;24553;51.640;-0.752;2022-10-31T08:35:11;100934.56;;;11.48;100.00
38812;BME280;24553;51.640;-0.752;2022-10-31T08:37:36;100944.38;;;11.48;100.00
38812;BME280;24553;51.640;-0.752;2022-10-31T08:40:02;100941.81;;;11.54;100.00
38812;BME280;24553;51.640;-0.752;2022-10-31T08:42:27;100942.34;;;11.65;100.00
38812;BME280;24553;51.640;-0.752;2022-10-31T08:44:53;100926.66;;;11.70;100.00
38812;BME280;24553;51.640;-0.752;2022-10-31T08:47:18;100931.31;;;11.83;100.00
38812;BME280;24553;51.640;-0.752;2022-10-31T08:49:43;100919.00;;;11.82;100.00
38812;BME280;24553;51.640;-0.752;2022-10-31T08:52:09;100928.00;;;11.81;100.00
38812;BME280;24553;51.640;-0.752;2022-10-31T08:54:34;100913.97;;;11.87;100.00
38812;BME280;24553;51.640;-0.752;2022-10-31T08:56:59;100918.91;;;11.90;100.00
38812;BME280;24553;51.640;-0.752;2022-10-31T08:59:25;100912.06;;;11.95;100.00
38812;BME280;24553;51.640;-0.752;2022-10-31T09:01:50;100910.63;;;11.99;100.00
38812;BME280;24553;51.640;-0.752;2022-10-31T09:04:15;100909.13;;;12.12;100.00
38812;BME280;24553;51.640;-0.752;2022-10-31T09:06:41;100913.53;;;12.26;100.00
38812;BME280;24553;51.640;-0.752;2022-10-31T09:09:06;100909.88;;;12.27;100.00
38812;BME280;24553;51.640;-0.752;2022-10-31T09:11:31;100900.44;;;12.25;100.00
38812;BME280;24553;51.640;-0.752;2022-10-31T09:13:57;100892.25;;;12.26;100.00
38812;BME280;24553;51.640;-0.752;2022-10-31T09:16:22;100884.28;;;12.26;100.00
38812;BME280;24553;51.640;-0.752;2022-10-31T09:18:47;100879.34;;;12.23;100.00
38812;BME280;24553;51.640;-0.752;2022-10-31T09:21:13;100877.00;;;12.35;100.00
38812;BME280;24553;51.640;-0.752;2022-10-31T09:23:38;100876.69;;;12.44;100.00
38812;BME280;24553;51.640;-0.752;2022-10-31T09:26:03;100870.34;;;12.46;100.00
38812;BME280;24553;51.640;-0.752;2022-10-31T09:28:29;100874.69;;;12.53;100.00
38812;BME280;24553;51.640;-0.752;2022-10-31T09:30:55;100862.44;;;12.59;100.00
38812;BME280;24553;51.640;-0.752;2022-10-31T09:33:20;100870.47;;;12.65;100.00
38812;BME280;24553;51.640;-0.752;2022-10-31T09:35:46;100860.88;;;12.71;100.00
38812;BME280;24553;51.640;-0.752;2022-10-31T09:38:17;100852.28;;;12.69;100.00
38812;BME280;24553;51.640;-0.752;2022-10-31T09:40:55;100850.06;;;12.73;100.00
38812;BME280;24553;51.640;-0.752;2022-10-31T09:49:11;100818.25;;;12.99;100.00
38812;BME280;24553;51.640;-0.752;2022-10-31T09:51:34;100811.56;;;13.23;100.00
38812;BME280;24553;51.640;-0.752;2022-10-31T09:54:31;100804.69;;;13.36;100.00
38812;BME280;24553;51.640;-0.752;2022-10-31T09:56:58;100797.53;;;13.43;100.00
38812;BME280;24553;51.640;-0.752;2022-10-31T09:59:37;100802.66;;;13.51;100.00
38812;BME280;24553;51.640;-0.752;2022-10-31T10:02:11;100792.84;;;13.71;100.00
38812;BME280;24553;51.640;-0.752;2022-10-31T10:04:57;100787.09;;;13.88;100.00
38812;BME280;24553;51.640;-0.752;2022-10-31T10:07:35;100781.97;;;13.93;100.00
38812;BME280;24553;51.640;-0.752;2022-10-31T10:10:17;100775.66;;;13.94;100.00
38812;BME280;24553;51.640;-0.752;2022-10-31T10:28:40;100701.41;;;13.78;100.00
38812;BME280;24553;51.640;-0.752;2022-10-31T10:31:30;100706.13;;;13.89;100.00
38812;BME280;24553;51.640;-0.752;2022-10-31T10:34:01;100708.41;;;13.79;100.00
38812;BME280;24553;51.640;-0.752;2022-10-31T10:37:04;100696.69;;;14.00;100.00
38812;BME280;24553;51.640;-0.752;2022-10-31T10:39:41;100691.09;;;14.21;100.00
38812;BME280;24553;51.640;-0.752;2022-10-31T10:42:15;100688.78;;;14.31;100.00
38812;BME280;24553;51.640;-0.752;2022-10-31T10:45:06;100666.47;;;14.26;100.00
38812;BME280;24553;51.640;-0.752;2022-10-31T10:48:05;100655.56;;;14.34;100.00
38812;BME280;24553;51.640;-0.752;2022-10-31T10:50:36;100646.25;;;14.56;100.00
38812;BME280;24553;51.640;-0.752;2022-10-31T10:56:47;100628.94;;;14.66;100.00
38812;BME280;24553;51.640;-0.752;2022-10-31T10:59:19;100627.69;;;14.75;100.00
38812;BME280;24553;51.640;-0.752;2022-10-31T11:01:48;100612.66;;;14.74;100.00
38812;BME280;24553;51.640;-0.752;2022-10-31T11:09:23;100607.66;;;14.59;100.00
38812;BME280;24553;51.640;-0.752;2022-10-31T11:11:49;100605.22;;;14.51;100.00
38812;BME280;24553;51.640;-0.752;2022-10-31T11:14:16;100612.59;;;14.55;100.00
38812;BME280;24553;51.640;-0.752;2022-10-31T11:16:45;100610.88;;;14.68;100.00
38812;BME280;24553;51.640;-0.752;2022-10-31T11:21:40;100604.25;;;14.77;100.00
38812;BME280;24553;51.640;-0.752;2022-10-31T11:26:34;100583.38;;;14.67;100.00
38812;BME280;24553;51.640;-0.752;2022-10-31T11:29:00;100582.91;;;14.77;100.00
38812;BME280;24553;51.640;-0.752;2022-10-31T11:31:28;100573.47;;;14.74;100.00
38812;BME280;24553;51.640;-0.752;2022-10-31T11:34:00;100569.06;;;14.87;100.00
38812;BME280;24553;51.640;-0.752;2022-10-31T11:36:27;100567.72;;;15.02;100.00
38812;BME280;24553;51.640;-0.752;2022-10-31T11:38:54;100554.78;;;14.99;100.00
38812;BME280;24553;51.640;-0.752;2022-10-31T11:41:29;100539.84;;;15.17;100.00
38812;BME280;24553;51.640;-0.752;2022-10-31T11:44:18;100532.81;;;15.22;100.00
38812;BME280;24553;51.640;-0.752;2022-10-31T11:46:48;100533.38;;;15.31;100.00
38812;BME280;24553;51.640;-0.752;2022-10-31T11:49:23;100526.97;;;15.32;100.00
38812;BME280;24553;51.640;-0.752;2022-10-31T11:51:54;100529.66;;;15.51;100.00
38812;BME280;24553;51.640;-0.752;2022-10-31T11:56:51;100517.69;;;15.35;100.00
38812;BME280;24553;51.640;-0.752;2022-10-31T11:59:21;100505.13;;;15.17;100.00
38812;BME280;24553;51.640;-0.752;2022-10-31T12:01:49;100495.63;;;15.02;100.00
38812;BME280;24553;51.640;-0.752;2022-10-31T12:04:15;100503.69;;;14.96;100.00
38812;BME280;24553;51.640;-0.752;2022-10-31T12:06:43;100495.72;;;14.89;100.00
38812;BME280;24553;51.640;-0.752;2022-10-31T12:09:44;100486.31;;;14.87;100.00
38812;BME280;24553;51.640;-0.752;2022-10-31T12:17:51;100459.50;;;15.00;100.00
38812;BME280;24553;51.640;-0.752;2022-10-31T12:26:18;100434.06;;;15.53;100.00
38812;BME280;24553;51.640;-0.752;2022-10-31T12:31:56;100430.34;;;15.72;100.00
38812;BME280;24553;51.640;-0.752;2022-10-31T12:50:47;100397.50;;;15.83;100.00
38812;BME280;24553;51.640;-0.752;2022-10-31T12:56:04;100389.97;;;15.62;100.00
38812;BME280;24553;51.640;-0.752;2022-10-31T12:59:01;100374.53;;;15.45;100.00
38812;BME280;24553;51.640;-0.752;2022-10-31T13:01:34;100372.19;;;15.37;100.00
38812;BME280;24553;51.640;-0.752;2022-10-31T13:04:09;100369.38;;;15.32;100.00
38812;BME280;24553;51.640;-0.752;2022-10-31T13:06:49;100360.72;;;15.18;100.00
38812;BME280;24553;51.640;-0.752;2022-10-31T13:09:19;100352.41;;;15.08;100.00
38812;BME280;24553;51.640;-0.752;2022-10-31T13:12:01;100338.63;;;14.93;100.00
38812;BME280;24553;51.640;-0.752;2022-10-31T13:14:37;100320.38;;;14.90;100.00
38812;BME280;24553;51.640;-0.752;2022-10-31T13:17:05;100319.13;;;14.92;100.00
38812;BME280;24553;51.640;-0.752;2022-10-31T13:19:36;100304.28;;;14.96;100.00
38812;BME280;24553;51.640;-0.752;2022-10-31T13:27:30;100285.22;;;15.23;100.00
38812;BME280;24553;51.640;-0.752;2022-10-31T13:35:34;100267.19;;;15.37;100.00
38812;BME280;24553;51.640;-0.752;2022-10-31T13:45:55;100240.69;;;15.35;100.00
38812;BME280;24553;51.640;-0.752;2022-10-31T13:50:59;100228.97;;;15.36;100.00
38812;BME280;24553;51.640;-0.752;2022-10-31T13:53:40;100225.72;;;15.34;100.00
38812;BME280;24553;51.640;-0.752;2022-10-31T13:56:15;100217.84;;;15.39;100.00
38812;BME280;24553;51.640;-0.752;2022-10-31T14:01:25;100206.34;;;15.39;100.00
38812;BME280;24553;51.640;-0.752;2022-10-31T14:04:21;100202.59;;;15.40;100.00
38812;BME280;24553;51.640;-0.752;2022-10-31T14:07:06;100196.94;;;15.36;100.00
38812;BME280;24553;51.640;-0.752;2022-10-31T14:09:38;100190.63;;;15.31;100.00
38812;BME280;24553;51.640;-0.752;2022-10-31T14:12:08;100184.22;;;15.20;100.00
38812;BME280;24553;51.640;-0.752;2022-10-31T14:15:05;100183.06;;;15.16;100.00
38812;BME280;24553;51.640;-0.752;2022-10-31T14:18:00;100173.06;;;15.11;100.00
38812;BME280;24553;51.640;-0.752;2022-10-31T14:20:43;100177.00;;;15.09;100.00
38812;BME280;24553;51.640;-0.752;2022-10-31T14:26:17;100164.88;;;14.94;100.00
38812;BME280;24553;51.640;-0.752;2022-10-31T14:28:43;100161.03;;;14.90;100.00
38812;BME280;24553;51.640;-0.752;2022-10-31T14:31:29;100164.59;;;14.84;100.00
38812;BME280;24553;51.640;-0.752;2022-10-31T14:34:01;100158.31;;;14.78;100.00
38812;BME280;24553;51.640;-0.752;2022-10-31T14:36:42;100148.91;;;14.76;100.00
38812;BME280;24553;51.640;-0.752;2022-10-31T14:39:18;100145.06;;;14.72;100.00
38812;BME280;24553;51.640;-0.752;2022-10-31T14:42:26;100140.31;;;14.74;100.00
38812;BME280;24553;51.640;-0.752;2022-10-31T14:45:09;100137.06;;;14.72;100.00
38812;BME280;24553;51.640;-0.752;2022-10-31T14:48:14;100124.75;;;14.71;100.00
38812;BME280;24553;51.640;-0.752;2022-10-31T14:50:48;100118.59;;;14.70;100.00
38812;BME280;24553;51.640;-0.752;2022-10-31T14:53:32;100105.13;;;14.65;100.00
38812;BME280;24553;51.640;-0.752;2022-10-31T14:55:59;100090.97;;;14.65;100.00
38812;BME280;24553;51.640;-0.752;2022-10-31T14:58:33;100095.25;;;14.66;100.00
38812;BME280;24553;51.640;-0.752;2022-10-31T15:01:00;100093.66;;;14.65;100.00
38812;BME280;24553;51.640;-0.752;2022-10-31T15:03:35;100086.66;;;14.64;100.00